Hauptseite
METAR-TAF:

METAR-TAF

Flughäfen :

Río Grande, Argentinien

Breite: 53-48S, Länge: 067-45W, Höhe: 13 m

METAR: fehlend

Zeit: 20:56 (23:56 UTC)

Prognose

Neuester Wetterbericht von vor 6 Stunden und 56 Minuten, um 17:00 UTC
Gültige Prognose vom 16 um 18 UTC bis 17 um 18 UTC
Wind 20 kt aus West, Böen bis zu 33 kt
Sichtweite 10 km oder mehr
keine Wolken unter 1500 m und keine Kumulonimbus oder Gewitterwolken
Übergehend zu
vom 16 um 19 UTC bis 16 um 21 UTC
Wind 15 kt aus Südwest, Böen bis zu 25 kt
Übergehend zu
vom 16 um 21 UTC bis 16 um 23 UTC
Wind 10 kt aus West/Südwest

TAF: SAWE 161700Z 1618/1718 27020G33KT CAVOK TX02/1618Z TNM06/1712Z BECMG 1619/1621 23015G25KT BECMG 1621/1623 25010KT

Wetterbeobachtungen und Prognosen von mehr als 4000 Flughäfen (METAR und TAF Bericht).

Die verfügbaren Stationen werden durch gelbe und rote Markierungen auf der Karte dargestellt.

Führen Sie die Maus auf sie, um den Namen der Station zu sehen.

Darauf klicken, um die Beobachtung von Wetterbeobachtungen und Prognosen zu sehen.

Um die Karte zu ändern : klicken Sie auf den grünen Tasten mit einem schwarzen Kreuz Zum Vergrößern, auf den grünen Button mit einem Gedankenstrich zu verkleinern, oder auf die grünen Pfeile für benachbarte Karten.


METAR-TAF: